ADDS METAR Data INFO
IDs: Format: Raw Decoded Include TAF

Data at: 1935 UTC 17 Jul 2018

METAR for:KSDF (Louisville Intl, KY, US)
Text:KSDF 171856Z 02009G17KT 10SM FEW060 BKN250 32/16 A2999 RMK AO2 SLP150 CB DSNT SE T03170161
Temperature: 31.7°C ( 89°F)
Dewpoint: 16.1°C ( 61°F) [RH = 39%]
Pressure (altimeter):29.99 inches Hg (1015.7 mb) [Sea level pressure: 1015.0 mb]
Winds:from the NNE (20 degrees) at 10 MPH (9 knots; 4.6 m/s) gusting to 20 MPH (17 knots; 8.7 m/s)
Visibility:10 or more sm (16+ km)
Ceiling:25000 feet AGL
Clouds: few clouds at 6000 feet AGL, broken clouds at 25000 feet AGL